Time;durP1;ratioP1;P1;durP2;ratioP2;P2;SDS_P1;SDS_P2;PMS_P1;PMS_P2;Temp;Humidity;BMP_temperature;BMP_pressure;BME280_temperature;BME280_humidity;BME280_pressure;Samples;Min_cycle;Max_cycle;Signal;HPM_P1;HPM_P2
2021/11/17 02:26:42;;;;;;;;;18.50;15.75;;;;;20.46;39.88;101621.59;5098753;27;45402;-48
2021/11/17 02:29:29;;;;;;;;;17.50;15.00;;;;;20.46;40.06;101616.31;5097289;27;46054;-49
2021/11/17 02:31:54;;;;;;;;;14.75;14.50;;;;;20.46;40.20;101611.06;5098329;27;45871;-46
2021/11/17 02:34:46;;;;;;;;;16.00;12.75;;;;;20.44;40.16;101605.88;5098352;27;45422;-45
2021/11/17 02:37:24;;;;;;;;;14.50;13.50;;;;;20.45;39.91;101601.47;5059397;27;45419;-47
2021/11/17 02:40:05;;;;;;;;;19.00;14.25;;;;;20.42;40.50;101601.59;5080033;27;46823;-46
2021/11/17 02:42:55;;;;;;;;;20.50;15.75;;;;;20.44;40.50;101600.59;5098205;27;45497;-47
2021/11/17 02:45:43;;;;;;;;;17.00;16.75;;;;;20.43;40.62;101575.19;5098278;27;45237;-45
2021/11/17 02:48:11;;;;;;;;;14.75;13.50;;;;;20.43;40.29;101574.34;5098548;27;45447;-44
2021/11/17 02:51:15;;;;;;;;;17.75;15.75;;;;;20.43;40.09;101582.25;5097979;27;45443;-43
2021/11/17 02:53:53;;;;;;;;;15.50;13.00;;;;;20.42;40.42;101596.31;5058748;27;45286;-43
2021/11/17 02:56:36;;;;;;;;;13.75;12.00;;;;;20.40;40.29;101604.28;5097913;27;45260;-48
2021/11/17 02:59:40;;;;;;;;;16.25;14.50;;;;;20.42;40.08;101612.13;5098153;27;45367;-48
2021/11/17 03:02:14;;;;;;;;;17.00;15.75;;;;;20.42;40.47;101606.84;5097935;27;45678;-49
2021/11/17 03:04:49;;;;;;;;;16.00;15.25;;;;;20.41;40.01;101610.41;5097922;27;45377;-45
2021/11/17 03:07:36;;;;;;;;;17.25;13.75;;;;;20.42;40.24;101617.38;5079827;27;45335;-48
2021/11/17 03:10:10;;;;;;;;;17.75;15.75;;;;;20.41;40.49;101621.78;5098210;27;45598;-48
2021/11/17 03:12:44;;;;;;;;;19.00;14.00;;;;;20.36;40.54;101608.81;5097797;27;46227;-49
2021/11/17 03:15:16;;;;;;;;;16.00;13.50;;;;;20.40;40.17;101620.06;5097637;27;45302;-48
2021/11/17 03:17:56;;;;;;;;;18.50;16.00;;;;;20.39;40.77;101619.22;5097944;27;45174;-49
2021/11/17 03:20:40;;;;;;;;;15.75;14.00;;;;;20.39;40.28;101628.91;5079378;27;45390;-49
2021/11/17 03:23:24;;;;;;;;;17.75;15.25;;;;;20.39;40.66;101634.19;5097560;27;46493;-50
2021/11/17 03:26:05;;;;;;;;;17.00;17.00;;;;;20.39;40.48;101644.72;5097680;27;45877;-49
2021/11/17 03:28:51;;;;;;;;;15.25;15.25;;;;;20.41;40.69;101655.16;5097904;27;45241;-52
2021/11/17 03:31:29;;;;;;;;;17.00;14.00;;;;;20.39;40.23;101657.88;5098101;27;45452;-51
2021/11/17 03:34:48;;;;;;;;;16.00;15.75;;;;;20.36;40.65;101661.47;5097576;27;45720;-48
2021/11/17 03:37:23;;;;;;;;;13.50;13.50;;;;;20.37;40.47;101668.44;4994676;28;45918;-48
2021/11/17 03:40:02;;;;;;;;;17.00;14.25;;;;;20.37;40.60;101665.81;5095566;27;45400;-50
2021/11/17 03:42:46;;;;;;;;;16.00;14.00;;;;;20.36;40.22;101672.00;5079181;27;45236;-51
2021/11/17 03:45:20;;;;;;;;;16.00;15.00;;;;;20.37;40.77;101659.72;5097407;27;46281;-48
2021/11/17 03:48:13;;;;;;;;;14.25;13.00;;;;;20.35;40.91;101656.28;5097658;27;45464;-51
2021/11/17 03:51:00;;;;;;;;;19.50;17.50;;;;;20.37;40.36;101667.63;5064027;27;45349;-51
2021/11/17 03:53:37;;;;;;;;;16.25;13.00;;;;;20.36;40.45;101666.75;5097517;27;45350;-49
2021/11/17 03:56:20;;;;;;;;;15.25;13.75;;;;;20.36;40.24;101682.53;5097024;27;45336;-47
2021/11/17 03:58:55;;;;;;;;;16.75;15.25;;;;;20.35;40.71;101672.06;5079126;27;45217;-48
2021/11/17 04:01:23;;;;;;;;;17.50;14.50;;;;;20.31;40.69;101668.72;5097478;27;45339;-45
2021/11/17 04:04:07;;;;;;;;;15.00;12.00;;;;;20.35;40.77;101680.81;5097701;27;45276;-43
2021/11/17 04:06:51;;;;;;;;;12.50;12.50;;;;;20.34;40.42;101673.84;5096786;27;47448;-48
2021/11/17 04:09:29;;;;;;;;;17.75;14.50;;;;;20.34;40.54;101679.09;5097363;27;45890;-48
2021/11/17 04:12:01;;;;;;;;;16.25;13.25;;;;;20.35;40.78;101679.97;5097075;27;45358;-48
2021/11/17 04:14:53;;;;;;;;;17.75;14.00;;;;;20.33;40.85;101685.31;5096980;27;45232;-50
2021/11/17 04:17:43;;;;;;;;;15.75;14.75;;;;;20.33;40.91;101687.94;5091893;27;45568;-49
2021/11/17 04:20:20;;;;;;;;;13.00;12.75;;;;;20.32;40.88;101696.75;5096927;27;45910;-49
2021/11/17 04:23:37;;;;;;;;;13.50;13.50;;;;;20.33;40.55;101697.59;5097003;27;45315;-49
2021/11/17 04:26:05;;;;;;;;;13.50;13.25;;;;;20.32;40.86;101702.03;5053832;27;45417;-51
2021/11/17 04:28:47;;;;;;;;;19.00;17.25;;;;;20.31;41.03;101707.34;5078329;27;47617;-51
2021/11/17 04:31:43;;;;;;;;;12.50;12.50;;;;;20.32;40.72;101712.56;5096858;27;45899;-46
2021/11/17 04:34:30;;;;;;;;;16.00;15.00;;;;;20.29;40.57;101715.31;5096939;27;45350;-46
2021/11/17 04:36:55;;;;;;;;;17.75;14.25;;;;;20.31;40.41;101716.09;5097326;27;45367;-52
2021/11/17 04:39:23;;;;;;;;;17.00;15.00;;;;;20.29;40.96;101706.53;5095765;27;46156;-47
2021/11/17 04:42:11;;;;;;;;;13.50;13.50;;;;;20.30;40.48;101709.13;5097072;27;45325;-45
2021/11/17 04:44:39;;;;;;;;;16.75;13.25;;;;;20.31;40.34;101718.75;5097153;27;45400;-45
2021/11/17 04:47:22;;;;;;;;;14.75;13.50;;;;;20.27;40.39;101711.88;5097342;27;45303;-48
2021/11/17 04:50:05;;;;;;;;;11.75;11.75;;;;;20.30;41.00;101714.41;5079584;27;45374;-45
2021/11/17 04:52:49;;;;;;;;;16.25;12.75;;;;;20.29;40.44;101717.94;5064118;27;45364;-45
2021/11/17 04:55:36;;;;;;;;;14.75;12.00;;;;;20.30;40.79;101710.88;5100338;27;45349;-43
2021/11/17 04:58:23;;;;;;;;;13.50;11.25;;;;;20.30;40.54;101716.16;5100293;27;45399;-44
2021/11/17 05:00:58;;;;;;;;;14.00;9.50;;;;;20.30;41.00;101716.16;5100122;27;46902;-45
2021/11/17 05:03:36;;;;;;;;;14.25;12.25;;;;;20.25;41.05;101700.53;5100356;27;45357;-47
2021/11/17 05:06:13;;;;;;;;;14.25;12.75;;;;;20.29;40.76;101707.41;5099736;27;45399;-48
2021/11/17 05:09:12;;;;;;;;;15.25;15.25;;;;;20.29;40.69;101704.78;5100163;27;45264;-44
2021/11/17 05:12:00;;;;;;;;;12.25;11.00;;;;;20.28;41.07;101708.31;5099814;27;45424;-49
2021/11/17 05:14:40;;;;;;;;;11.00;9.00;;;;;20.27;40.56;101703.97;5099857;27;46030;-44
2021/11/17 05:17:15;;;;;;;;;13.25;12.50;;;;;20.28;40.67;101707.47;5099889;27;45440;-46
2021/11/17 05:20:19;;;;;;;;;13.25;13.25;;;;;20.27;41.09;101709.25;5099873;27;45585;-44
2021/11/17 05:23:11;;;;;;;;;12.75;9.50;;;;;20.27;40.77;101708.41;4996569;28;46393;-44
2021/11/17 05:25:55;;;;;;;;;13.00;12.50;;;;;20.26;41.09;101712.78;4981598;28;46147;-44
2021/11/17 05:28:46;;;;;;;;;18.50;14.50;;;;;20.27;41.21;101711.88;5075715;27;45418;-44
2021/11/17 05:31:20;;;;;;;;;9.00;9.00;;;;;20.27;40.93;101711.03;5070227;27;45297;-44
2021/11/17 05:33:57;;;;;;;;;15.75;12.25;;;;;20.23;41.28;101702.38;5099365;27;45817;-46
2021/11/17 05:36:50;;;;;;;;;11.75;11.00;;;;;20.23;40.71;101705.00;5099653;27;45438;-47
2021/11/17 05:39:37;;;;;;;;;11.00;10.00;;;;;20.26;41.03;101696.16;5099560;27;45432;-45
2021/11/17 05:42:09;;;;;;;;;9.25;9.25;;;;;20.21;41.05;101688.44;5082348;27;45333;-44
2021/11/17 05:45:16;;;;;;;;;13.50;11.50;;;;;20.25;40.99;101695.28;5098952;27;46406;-45
2021/11/17 05:47:51;;;;;;;;;12.25;10.75;;;;;20.21;41.12;101698.97;5036103;28;45432;-46
2021/11/17 05:50:32;;;;;;;;;13.75;11.00;;;;;20.22;41.48;101703.31;5036175;28;45491;-48
2021/11/17 05:53:22;;;;;;;;;11.00;10.00;;;;;20.26;41.09;101706.69;5076136;27;45320;-47
2021/11/17 05:56:34;;;;;;;;;13.75;11.50;;;;;20.19;41.37;101696.38;5098805;27;46810;-47
2021/11/17 05:59:15;;;;;;;;;12.75;11.50;;;;;20.24;41.00;101693.56;4996219;28;45382;-44
2021/11/17 06:01:46;;;;;;;;;9.75;9.75;;;;;20.21;41.06;101688.44;5096572;27;45271;-45
2021/11/17 06:04:12;;;;;;;;;10.50;9.00;;;;;20.21;41.35;101686.66;5080828;27;45395;-48
2021/11/17 06:06:38;;;;;;;;;8.25;7.50;;;;;20.23;41.34;101691.84;5098385;27;46486;-43
2021/11/17 06:09:06;;;;;;;;;11.50;9.25;;;;;20.23;41.08;101694.47;5098777;27;45806;-43
2021/11/17 06:11:32;;;;;;;;;12.50;12.50;;;;;20.19;41.49;101679.75;5098786;27;45299;-44
2021/11/17 06:13:59;;;;;;;;;12.25;10.00;;;;;20.23;41.59;101686.59;5099529;27;45501;-46
2021/11/17 06:16:26;;;;;;;;;11.00;9.00;;;;;20.23;41.27;101686.59;5098998;27;46439;-46
2021/11/17 06:18:53;;;;;;;;;10.25;10.00;;;;;20.22;41.67;101685.75;5098677;27;45888;-44
2021/11/17 06:21:19;;;;;;;;;13.25;10.00;;;;;20.21;41.07;101675.28;5098801;27;45375;-45
2021/11/17 06:23:58;;;;;;;;;9.50;9.50;;;;;20.22;41.24;101675.22;5098885;27;45327;-45
2021/11/17 06:26:28;;;;;;;;;9.00;6.50;;;;;20.22;41.14;101685.75;5098810;27;46587;-45
2021/11/17 06:29:00;;;;;;;;;12.50;10.50;;;;;20.19;41.39;101677.97;5098762;27;45296;-46
2021/11/17 06:31:28;;;;;;;;;13.25;10.50;;;;;20.22;41.52;101684.91;5098930;27;45442;-45
2021/11/17 06:33:54;;;;;;;;;11.50;9.50;;;;;20.23;41.28;101689.22;5099022;27;45608;-48
2021/11/17 06:36:19;;;;;;;;;11.25;8.25;;;;;20.21;41.36;101688.44;5098303;27;46312;-46
2021/11/17 06:38:46;;;;;;;;;9.50;9.00;;;;;20.22;41.63;101684.91;5080033;27;45411;-44
2021/11/17 06:41:13;;;;;;;;;9.75;8.00;;;;;20.21;41.20;101693.72;5097181;27;45470;-50
2021/11/17 06:43:38;;;;;;;;;10.00;9.00;;;;;20.21;41.79;101683.19;5098673;27;45530;-50
2021/11/17 06:46:04;;;;;;;;;9.50;9.50;;;;;20.22;41.15;101695.44;5098250;27;46182;-50
2021/11/17 06:48:30;;;;;;;;;11.00;9.75;;;;;20.20;41.79;101695.47;5080030;27;45453;-48
2021/11/17 06:50:57;;;;;;;;;10.00;8.75;;;;;20.22;41.58;101700.69;5098421;27;45533;-50
2021/11/17 06:53:24;;;;;;;;;12.50;10.25;;;;;20.21;41.67;101705.09;5098299;27;45367;-52
2021/11/17 06:55:50;;;;;;;;;10.00;9.00;;;;;20.18;41.20;101714.88;5097933;27;45732;-47
2021/11/17 06:58:15;;;;;;;;;10.75;10.75;;;;;20.20;41.56;101729.69;5097958;27;45255;-43
2021/11/17 07:00:44;;;;;;;;;13.75;9.25;;;;;20.19;41.56;101724.50;5097949;27;45249;-46
2021/11/17 07:03:10;;;;;;;;;9.25;8.25;;;;;20.17;41.58;101729.84;5098090;27;45157;-49
2021/11/17 07:05:36;;;;;;;;;10.00;9.00;;;;;20.18;41.27;101730.66;5096250;27;48391;-46
2021/11/17 07:08:04;;;;;;;;;9.25;8.75;;;;;20.15;41.36;101731.66;5097867;27;45321;-46
2021/11/17 07:10:31;;;;;;;;;7.50;7.50;;;;;20.17;41.97;101750.88;5098272;27;45335;-48
2021/11/17 07:12:57;;;;;;;;;12.25;10.00;;;;;20.16;41.64;101750.94;5098283;27;45511;-45
2021/11/17 07:15:24;;;;;;;;;11.75;10.75;;;;;20.17;41.49;101758.78;5096940;27;46439;-44
2021/11/17 07:17:49;;;;;;;;;14.75;13.50;;;;;20.16;42.08;101761.47;5097707;27;45767;-46
2021/11/17 07:20:15;;;;;;;;;15.50;13.00;;;;;20.15;42.00;101762.38;5097705;27;45331;-46
2021/11/17 07:22:42;;;;;;;;;20.75;15.75;;;;;20.16;41.97;101775.50;5097962;27;45593;-48
2021/11/17 07:25:09;;;;;;;;;16.50;16.00;;;;;20.15;41.78;101770.25;5097400;27;45477;-45
2021/11/17 07:27:36;;;;;;;;;14.50;14.00;;;;;20.13;41.83;101774.72;5097412;27;45322;-50
2021/11/17 07:30:06;;;;;;;;;17.50;15.25;;;;;20.08;41.78;101770.50;5097603;27;45437;-46
2021/11/17 07:32:32;;;;;;;;;15.75;15.50;;;;;20.13;42.38;101790.50;5097803;27;45419;-46
2021/11/17 07:34:57;;;;;;;;;16.50;16.50;;;;;20.13;42.01;101785.25;5079522;27;47402;-45
2021/11/17 07:37:23;;;;;;;;;18.50;12.75;;;;;20.12;42.32;101794.09;5097196;27;45413;-43
2021/11/17 07:39:48;;;;;;;;;15.25;13.50;;;;;20.11;42.08;101793.22;5097401;27;45481;-46
2021/11/17 07:42:14;;;;;;;;;15.50;13.50;;;;;20.12;42.38;101805.47;5097581;27;45600;-47
2021/11/17 07:44:41;;;;;;;;;15.00;13.50;;;;;20.11;41.90;101806.38;5097092;27;45667;-47
2021/11/17 07:47:07;;;;;;;;;13.50;13.25;;;;;20.08;42.41;101802.09;5097337;27;45350;-46
2021/11/17 07:49:33;;;;;;;;;13.50;11.75;;;;;20.12;42.05;101805.47;5097417;27;45249;-48
2021/11/17 07:51:59;;;;;;;;;15.00;13.00;;;;;20.12;42.41;101812.50;5097572;27;45397;-46
2021/11/17 07:54:27;;;;;;;;;12.00;11.25;;;;;20.07;42.31;101800.38;5096952;27;46492;-48
2021/11/17 07:56:53;;;;;;;;;11.25;11.25;;;;;20.12;42.17;101804.63;5096952;27;45804;-47
2021/11/17 07:59:22;;;;;;;;;13.75;12.75;;;;;20.12;42.65;101802.00;5096892;27;45501;-47
2021/11/17 08:01:50;;;;;;;;;11.50;11.50;;;;;20.10;42.16;101806.44;5097219;27;45644;-47
2021/11/17 08:04:20;;;;;;;;;15.25;12.50;;;;;20.11;41.88;101809.00;5096690;27;46355;-44
2021/11/17 08:06:46;;;;;;;;;13.00;11.00;;;;;20.12;42.10;101809.88;5096677;27;45345;-44
2021/11/17 08:09:12;;;;;;;;;16.25;14.25;;;;;20.11;42.36;101808.16;5096781;27;45434;-44
2021/11/17 08:11:40;;;;;;;;;16.00;14.75;;;;;20.11;42.47;101814.28;5096863;27;45399;-44
2021/11/17 08:14:06;;;;;;;;;12.00;11.00;;;;;20.08;42.47;101810.00;5096605;27;46588;-46
2021/11/17 08:16:31;;;;;;;;;11.75;9.50;;;;;20.12;42.61;101820.41;5096851;27;45317;-48
2021/11/17 08:18:57;;;;;;;;;14.25;11.00;;;;;20.10;42.41;101811.72;5096850;27;45527;-45
2021/11/17 08:21:23;;;;;;;;;11.00;9.00;;;;;20.11;42.38;101813.44;5096924;27;45673;-45
2021/11/17 08:23:48;;;;;;;;;11.00;10.00;;;;;20.11;42.08;101816.06;5096533;27;45329;-43
2021/11/17 08:26:16;;;;;;;;;11.25;11.25;;;;;20.11;42.22;101819.53;5096707;27;45267;-48
2021/11/17 08:28:42;;;;;;;;;11.50;11.00;;;;;20.08;42.71;101823.16;5099642;27;45531;-50
2021/11/17 08:31:10;;;;;;;;;9.25;9.00;;;;;20.11;42.07;101826.59;5100489;27;45314;-46
2021/11/17 08:33:36;;;;;;;;;11.50;10.00;;;;;20.11;42.13;101831.84;5081774;27;45391;-46
2021/11/17 08:36:02;;;;;;;;;9.00;7.25;;;;;20.11;42.13;101829.22;5100403;27;45401;-44
2021/11/17 08:38:30;;;;;;;;;9.75;9.75;;;;;20.09;42.28;101826.63;5081857;27;45522;-47
2021/11/17 08:40:59;;;;;;;;;10.00;8.00;;;;;20.11;42.42;101823.97;5100541;27;45466;-45
2021/11/17 08:43:26;;;;;;;;;13.75;10.75;;;;;20.11;42.53;101831.84;5100271;27;45363;-48
2021/11/17 08:45:52;;;;;;;;;12.50;8.75;;;;;20.11;42.80;101830.06;5098678;27;46212;-44
2021/11/17 08:48:20;;;;;;;;;9.00;9.00;;;;;20.10;42.41;101832.75;5100192;27;45315;-45
2021/11/17 08:50:46;;;;;;;;;12.00;10.00;;;;;20.10;42.28;101832.75;5100267;27;45543;-49
2021/11/17 08:53:15;;;;;;;;;8.25;8.00;;;;;20.07;42.46;101826.69;5099938;27;46152;-44
2021/11/17 08:55:43;;;;;;;;;10.00;9.00;;;;;20.06;42.77;101835.50;5099807;27;45312;-47
2021/11/17 08:58:09;;;;;;;;;10.50;8.50;;;;;20.08;42.63;101843.34;5100023;27;45452;-48
2021/11/17 09:00:35;;;;;;;;;8.75;8.75;;;;;20.09;42.86;101839.78;5100408;27;45520;-46
2021/11/17 09:03:04;;;;;;;;;9.00;7.75;;;;;20.08;42.42;101838.06;5099605;27;46627;-46
2021/11/17 09:05:33;;;;;;;;;9.00;9.00;;;;;20.10;42.83;101841.50;5099551;27;45269;-45
2021/11/17 09:07:59;;;;;;;;;7.50;7.00;;;;;20.07;43.03;101841.63;5099896;27;45277;-48
2021/11/17 09:10:31;;;;;;;;;15.25;12.25;;;;;20.10;42.99;101841.50;5099977;27;45260;-47
2021/11/17 09:12:56;;;;;;;;;9.00;7.00;;;;;20.10;42.88;101838.03;5099618;27;47419;-46
2021/11/17 09:15:27;;;;;;;;;8.50;8.50;;;;;20.13;43.22;101849.28;5099605;27;45335;-48
2021/11/17 09:17:52;;;;;;;;;10.75;9.25;;;;;20.13;43.34;101853.69;5099605;27;45244;-50
2021/11/17 09:20:20;;;;;;;;;10.50;9.00;;;;;20.13;42.78;101849.28;5099786;27;45482;-50
2021/11/17 09:22:45;;;;;;;;;9.00;7.00;;;;;20.13;43.11;101854.56;5099468;27;45545;-50
2021/11/17 09:25:12;;;;;;;;;8.00;7.00;;;;;20.15;43.31;101862.38;5097053;27;45535;-47
2021/11/17 09:27:39;;;;;;;;;7.25;7.00;;;;;20.15;42.96;101857.13;5098003;27;45505;-45
2021/11/17 09:30:09;;;;;;;;;11.75;8.00;;;;;20.16;43.01;101864.09;5099783;27;45439;-48
2021/11/17 09:32:34;;;;;;;;;6.25;6.25;;;;;20.15;43.13;101857.13;5099118;27;46861;-45
2021/11/17 09:35:07;;;;;;;;;7.50;7.50;;;;;20.16;42.90;101858.84;5098934;27;45353;-53
2021/11/17 09:37:33;;;;;;;;;9.25;9.25;;;;;20.12;42.72;101858.09;5099156;27;45189;-47
2021/11/17 09:39:58;;;;;;;;;9.50;7.00;;;;;20.15;42.93;101859.75;5097918;27;45609;-49
2021/11/17 09:42:25;;;;;;;;;10.00;9.00;;;;;20.13;42.58;101865.09;5080278;27;47588;-51
2021/11/17 09:44:51;;;;;;;;;8.25;6.75;;;;;20.13;43.08;101864.22;5098767;27;45360;-50
2021/11/17 09:47:20;;;;;;;;;13.00;9.75;;;;;20.15;42.87;101875.53;5099105;27;45434;-49
2021/11/17 09:49:48;;;;;;;;;9.00;7.25;;;;;20.12;42.82;101870.41;5099206;27;45578;-48
2021/11/17 09:52:30;;;;;;;;;12.25;9.50;;;;;20.15;42.96;101878.19;5098761;27;45688;-51
2021/11/17 09:55:04;;;;;;;;;10.75;8.50;;;;;20.14;43.06;101881.72;5098697;27;45326;-52
2021/11/17 09:57:34;;;;;;;;;7.75;6.75;;;;;20.14;42.70;101881.72;5099011;27;45465;-53
2021/11/17 10:00:10;;;;;;;;;10.00;8.00;;;;;20.14;42.90;101882.59;5099112;27;45270;-51
2021/11/17 10:02:43;;;;;;;;;8.75;7.25;;;;;20.14;42.73;101890.50;5099348;27;46563;-50
2021/11/17 10:05:24;;;;;;;;;12.50;9.00;;;;;20.13;43.13;101882.63;5098494;27;45303;-52
2021/11/17 10:13:37;;;;;;;;;8.25;6.00;;;;;20.13;43.20;101891.41;5098586;27;45663;-46
2021/11/17 10:16:03;;;;;;;;;9.75;9.75;;;;;20.12;43.67;101887.06;5098618;27;45457;-47
2021/11/17 10:18:39;;;;;;;;;9.75;8.00;;;;;20.13;43.60;101893.16;5098758;27;45308;-51
2021/11/17 10:21:09;;;;;;;;;10.50;8.75;;;;;20.12;44.26;101894.09;5098936;27;45400;-51
2021/11/17 10:23:52;;;;;;;;;9.50;9.00;;;;;20.12;44.17;101896.75;5098965;27;46553;-52
2021/11/17 10:26:18;;;;;;;;;10.75;9.50;;;;;20.13;44.89;101894.03;5063024;27;45498;-51
2021/11/17 10:29:10;;;;;;;;;13.25;10.75;;;;;20.14;45.54;101902.78;5098526;27;45234;-48
2021/11/17 10:32:03;;;;;;;;;12.75;10.00;;;;;20.15;46.14;101900.13;5095348;27;45341;-50
2021/11/17 10:34:36;;;;;;;;;8.25;8.00;;;;;20.15;47.15;101899.22;5098188;27;46275;-52
2021/11/17 10:37:08;;;;;;;;;9.75;7.75;;;;;20.17;47.50;101897.41;5098287;27;45975;-47
2021/11/17 10:39:39;;;;;;;;;10.00;7.25;;;;;20.15;47.38;101891.34;5098390;27;45244;-47
2021/11/17 10:42:19;;;;;;;;;10.00;9.00;;;;;20.19;47.23;101900.84;5098487;27;45581;-49
2021/11/17 10:44:54;;;;;;;;;9.00;9.00;;;;;20.19;47.24;101891.16;5098129;27;46700;-44
2021/11/17 10:47:33;;;;;;;;;10.25;8.25;;;;;20.19;47.86;101892.94;5098150;27;45285;-46
2021/11/17 10:50:04;;;;;;;;;11.50;10.00;;;;;20.17;47.37;101886.88;5097183;27;45329;-44
2021/11/17 10:52:51;;;;;;;;;11.00;9.75;;;;;20.17;48.05;101887.75;5098414;27;45171;-49
2021/11/17 10:55:19;;;;;;;;;10.25;9.00;;;;;20.20;47.64;101898.16;5097967;27;46161;-46
2021/11/17 10:57:44;;;;;;;;;11.00;8.25;;;;;20.19;47.78;101899.06;5097984;27;45894;-46
2021/11/17 11:00:12;;;;;;;;;9.50;9.50;;;;;20.20;47.60;101892.03;5098290;27;45379;-50
2021/11/17 11:02:39;;;;;;;;;11.75;10.25;;;;;20.21;47.46;101894.59;5098517;27;45581;-46
2021/11/17 11:05:11;;;;;;;;;9.00;8.00;;;;;20.21;47.46;101894.59;5079383;27;46177;-48
2021/11/17 11:07:44;;;;;;;;;12.00;11.00;;;;;20.22;47.39;101898.97;5079631;27;45758;-49
2021/11/17 11:10:15;;;;;;;;;7.75;7.00;;;;;20.22;47.69;101895.47;5098078;27;45307;-47
2021/11/17 11:12:41;;;;;;;;;8.25;7.25;;;;;20.22;47.19;101890.22;5098474;27;45461;-47
2021/11/17 11:15:46;;;;;;;;;8.00;7.25;;;;;20.23;47.48;101894.53;5097791;27;45492;-46
2021/11/17 11:18:16;;;;;;;;;10.25;9.25;;;;;20.24;47.38;101898.88;5094591;27;45841;-44
2021/11/17 11:20:44;;;;;;;;;9.50;7.00;;;;;20.23;47.42;101897.16;5097813;27;45282;-45
2021/11/17 11:23:17;;;;;;;;;8.00;7.00;;;;;20.22;46.85;101888.44;5098194;27;45190;-46
2021/11/17 11:25:49;;;;;;;;;8.00;8.00;;;;;20.22;47.53;101884.94;5097456;27;45638;-47
2021/11/17 11:28:47;;;;;;;;;12.25;8.25;;;;;20.20;47.01;101877.09;5097561;27;45941;-45
2021/11/17 11:31:13;;;;;;;;;9.75;7.00;;;;;20.22;47.01;101879.69;5097661;27;45350;-47
2021/11/17 11:33:48;;;;;;;;;10.33;9.33;;;;;20.22;47.13;101875.25;5098102;27;45568;-44
2021/11/17 11:36:13;;;;;;;;;6.50;5.00;;;;;20.23;46.97;101876.09;5078707;27;46351;-47
2021/11/17 11:38:49;;;;;;;;;8.00;8.00;;;;;20.21;46.78;101870.06;5097730;27;45343;-45
2021/11/17 11:41:29;;;;;;;;;9.25;7.00;;;;;20.22;46.71;101877.06;5097239;27;45197;-49
2021/11/17 11:46:48;;;;;;;;;7.75;6.75;;;;;20.22;46.81;101885.78;5097017;27;45997;-47
2021/11/17 11:49:35;;;;;;;;;8.75;8.75;;;;;20.22;46.71;101879.69;5097175;27;45346;-44
2021/11/17 11:52:06;;;;;;;;;6.50;6.50;;;;;20.22;46.60;101884.94;5097306;27;45456;-47
2021/11/17 11:54:56;;;;;;;;;7.50;7.00;;;;;20.21;46.94;101884.06;5078914;27;45455;-48
2021/11/17 11:57:41;;;;;;;;;9.00;7.75;;;;;20.22;47.05;101887.59;5096854;27;45422;-46
2021/11/17 12:00:12;;;;;;;;;8.25;8.25;;;;;20.21;46.61;101888.50;5097105;27;45200;-46
2021/11/17 12:02:49;;;;;;;;;8.00;7.75;;;;;20.22;46.54;101884.94;5096974;27;45417;-45
2021/11/17 12:05:23;;;;;;;;;7.00;7.00;;;;;20.22;46.41;101879.69;5096944;27;45347;-46
2021/11/17 12:07:54;;;;;;;;;9.00;7.00;;;;;20.21;46.85;101876.19;5097053;27;46678;-46
2021/11/17 12:10:23;;;;;;;;;9.00;7.00;;;;;20.22;46.65;101863.91;5096941;27;45869;-49
2021/11/17 12:12:49;;;;;;;;;6.25;6.25;;;;;20.21;46.72;101857.75;5096931;27;45420;-46
2021/11/17 12:15:17;;;;;;;;;10.00;8.75;;;;;20.21;46.35;101856.91;5097280;27;45530;-45
2021/11/17 12:17:43;;;;;;;;;10.50;9.25;;;;;20.17;46.24;101856.16;5078640;27;46393;-47
2021/11/17 12:20:21;;;;;;;;;8.50;7.75;;;;;20.24;46.45;101867.31;5096855;27;45866;-52
2021/11/17 12:22:52;;;;;;;;;7.50;6.50;;;;;20.20;46.17;101863.94;5096922;27;45398;-47
2021/11/17 12:25:23;;;;;;;;;6.75;6.75;;;;;20.22;46.04;101870.00;5097107;27;45276;-48
2021/11/17 12:27:55;;;;;;;;;9.25;8.50;;;;;20.22;46.15;101871.78;5096543;27;45565;-47
2021/11/17 12:30:41;;;;;;;;;8.00;8.00;;;;;20.18;45.88;101867.53;5096524;27;45304;-51
2021/11/17 12:33:18;;;;;;;;;7.75;7.75;;;;;20.20;45.86;101871.81;5096619;27;45406;-45
2021/11/17 12:35:58;;;;;;;;;7.75;6.25;;;;;20.21;46.41;101870.06;5097110;27;45423;-44
2021/11/17 12:38:25;;;;;;;;;7.00;6.25;;;;;20.18;46.05;101873.66;5078101;27;46992;-44
2021/11/17 12:40:57;;;;;;;;;7.00;5.25;;;;;20.23;46.09;101876.09;5096769;27;45741;-45
2021/11/17 12:43:28;;;;;;;;;8.25;7.25;;;;;20.22;46.24;101877.91;5096625;27;45422;-43
2021/11/17 12:46:20;;;;;;;;;6.00;6.00;;;;;20.22;46.10;101877.06;5096746;27;45528;-46
2021/11/17 12:48:52;;;;;;;;;6.25;5.00;;;;;20.18;46.03;101872.81;5064889;27;45532;-47
2021/11/17 12:51:25;;;;;;;;;7.25;6.00;;;;;20.22;45.85;101879.69;5096404;27;45356;-45
2021/11/17 12:53:53;;;;;;;;;8.00;6.75;;;;;20.20;46.06;101881.50;5096754;27;45319;-46
2021/11/17 12:56:39;;;;;;;;;7.50;6.00;;;;;20.20;45.53;101876.25;5096754;27;45414;-44
2021/11/17 12:59:34;;;;;;;;;8.75;6.75;;;;;20.18;45.60;101873.66;5096305;27;45587;-44
2021/11/17 13:02:05;;;;;;;;;8.00;8.00;;;;;20.18;46.03;101870.19;5096349;27;45320;-45
2021/11/17 13:04:40;;;;;;;;;7.00;7.00;;;;;20.17;46.02;101866.69;5096554;27;45410;-45
2021/11/17 13:07:09;;;;;;;;;6.00;5.50;;;;;20.20;45.71;101870.97;5096578;27;45324;-49
2021/11/17 13:09:57;;;;;;;;;6.75;6.00;;;;;20.20;45.88;101865.72;5096090;27;46573;-45
2021/11/17 13:12:25;;;;;;;;;6.25;6.25;;;;;20.19;45.51;101867.47;5096237;27;45343;-45
2021/11/17 13:14:55;;;;;;;;;8.75;7.75;;;;;20.20;45.78;101865.72;5099180;27;45525;-46
2021/11/17 13:17:23;;;;;;;;;6.25;6.00;;;;;20.19;45.72;101861.38;5099895;27;45331;-44
2021/11/17 13:19:53;;;;;;;;;9.25;6.25;;;;;20.18;45.33;101868.38;5099368;27;46515;-47
2021/11/17 13:22:18;;;;;;;;;6.75;6.00;;;;;20.17;45.73;101869.34;5099424;27;45751;-50
2021/11/17 13:24:45;;;;;;;;;6.50;6.50;;;;;20.13;45.61;101865.09;5100177;27;45355;-47
2021/11/17 13:27:11;;;;;;;;;7.75;7.00;;;;;20.17;45.31;101871.97;5099941;27;45685;-46
2021/11/17 13:29:56;;;;;;;;;7.75;6.00;;;;;20.17;45.81;101876.34;5099522;27;47134;-46
2021/11/17 13:32:37;;;;;;;;;7.00;7.00;;;;;20.16;45.73;101879.91;5099492;27;45838;-49
2021/11/17 13:35:24;;;;;;;;;8.75;6.00;;;;;20.15;45.74;101881.69;5099591;27;45257;-48
2021/11/17 13:37:50;;;;;;;;;5.75;5.75;;;;;20.15;45.14;101883.44;5099595;27;45548;-47
2021/11/17 13:40:22;;;;;;;;;6.25;5.75;;;;;20.13;46.00;101886.16;5099616;27;46234;-48
2021/11/17 13:42:48;;;;;;;;;6.00;5.75;;;;;20.14;45.45;101892.25;5099464;27;45245;-45
2021/11/17 13:45:20;;;;;;;;;9.00;6.00;;;;;20.14;45.51;101892.25;5081107;27;45817;-48
2021/11/17 13:47:46;;;;;;;;;5.00;5.00;;;;;20.14;45.77;101894.88;5099673;27;45432;-44
2021/11/17 13:50:15;;;;;;;;;7.25;5.25;;;;;20.14;45.70;101900.16;5098884;27;45363;-45
2021/11/17 13:52:44;;;;;;;;;5.50;4.25;;;;;20.14;45.43;101898.38;5098960;27;45417;-44
2021/11/17 13:55:15;;;;;;;;;4.00;4.00;;;;;20.14;45.69;101903.66;5099069;27;45370;-45
2021/11/17 13:57:42;;;;;;;;;5.00;5.00;;;;;20.14;45.57;101894.88;5099308;27;45508;-43
2021/11/17 14:00:11;;;;;;;;;9.00;5.25;;;;;20.14;44.97;101897.50;5099000;27;45488;-44
2021/11/17 14:02:38;;;;;;;;;6.75;5.75;;;;;20.11;45.51;101895.03;5098934;27;45739;-45
2021/11/17 14:05:05;;;;;;;;;6.00;6.00;;;;;20.12;45.04;101894.94;5098913;27;45297;-45
2021/11/17 14:07:32;;;;;;;;;5.00;5.00;;;;;20.12;45.69;101904.63;5099071;27;45418;-47
2021/11/17 14:09:58;;;;;;;;;7.50;6.00;;;;;20.12;45.02;101904.63;5098724;27;47113;-45
2021/11/17 14:12:23;;;;;;;;;5.00;5.00;;;;;20.13;45.08;101899.31;5098955;27;45947;-45
2021/11/17 14:14:49;;;;;;;;;5.00;4.75;;;;;20.08;45.59;101899.47;5099191;27;45686;-44
2021/11/17 14:17:15;;;;;;;;;6.75;5.50;;;;;20.12;45.22;101899.38;5099361;27;45558;-44
2021/11/17 14:19:41;;;;;;;;;6.00;6.00;;;;;20.08;45.57;101896.84;5098629;27;45291;-44
2021/11/17 14:22:06;;;;;;;;;4.00;4.00;;;;;20.11;45.24;101903.75;5098667;27;45347;-45